Time;durP1;ratioP1;P1;durP2;ratioP2;P2;SDS_P1;SDS_P2;PMS_P1;PMS_P2;Temp;Humidity;BMP_temperature;BMP_pressure;BME280_temperature;BME280_humidity;BME280_pressure;Samples;Min_cycle;Max_cycle;Signal;HPM_P1;HPM_P2
2023/10/16 00:00:47;;;;;;;4.93;1.92;;;6.60;99.90;;;;;;5072108;28;20039;-77
2023/10/16 00:03:33;;;;;;;5.55;1.85;;;6.60;99.90;;;;;;5067672;28;20494;-77
2023/10/16 00:06:19;;;;;;;5.53;1.63;;;6.60;99.90;;;;;;5085631;28;20077;-77
2023/10/16 00:09:14;;;;;;;9.02;2.10;;;6.60;99.90;;;;;;5071592;28;20130;-77
2023/10/16 00:12:02;;;;;;;7.82;1.30;;;6.50;99.90;;;;;;5087240;28;20475;-77
2023/10/16 00:14:48;;;;;;;8.70;1.80;;;6.60;99.90;;;;;;5062474;28;20071;-77
2023/10/16 00:17:34;;;;;;;5.28;1.63;;;6.60;99.90;;;;;;5086091;28;20039;-80
2023/10/16 00:20:24;;;;;;;6.47;1.80;;;6.50;99.90;;;;;;5068037;28;20421;-80
2023/10/16 00:23:10;;;;;;;6.00;1.30;;;6.50;99.90;;;;;;5098732;28;20109;-80
2023/10/16 00:25:58;;;;;;;8.27;1.90;;;6.50;99.90;;;;;;5085172;28;20050;-80
2023/10/16 00:28:46;;;;;;;6.00;1.55;;;6.50;99.90;;;;;;5079007;28;20032;-80
2023/10/16 00:31:32;;;;;;;6.10;1.50;;;6.50;99.90;;;;;;5075443;28;20027;-80
2023/10/16 00:34:22;;;;;;;7.88;2.15;;;6.60;99.90;;;;;;5086763;28;20035;-80
2023/10/16 00:37:08;;;;;;;6.55;2.03;;;6.50;99.90;;;;;;5054318;28;20652;-80
2023/10/16 00:39:54;;;;;;;5.65;1.50;;;6.50;99.90;;;;;;5069605;28;20130;-80
2023/10/16 00:42:43;;;;;;;9.75;1.75;;;6.50;99.90;;;;;;5080243;28;20051;-80
2023/10/16 00:45:29;;;;;;;6.65;1.35;;;6.50;99.90;;;;;;5066240;28;20135;-80
2023/10/16 00:48:18;;;;;;;8.90;1.80;;;6.50;99.90;;;;;;5042933;28;20896;-80
2023/10/16 00:51:09;;;;;;;4.72;1.60;;;6.50;99.90;;;;;;5029010;28;20126;-80
2023/10/16 00:53:55;;;;;;;6.45;1.77;;;6.40;99.90;;;;;;5043681;28;20086;-80
2023/10/16 00:56:43;;;;;;;7.43;1.95;;;6.40;99.90;;;;;;5033920;28;20037;-80
2023/10/16 00:59:29;;;;;;;6.93;1.88;;;6.40;99.90;;;;;;5037899;28;20145;-80
2023/10/16 01:02:15;;;;;;;5.75;2.03;;;6.50;99.90;;;;;;5050736;28;20493;-80
2023/10/16 01:05:02;;;;;;;8.15;2.67;;;6.40;99.90;;;;;;5056543;28;20127;-80
2023/10/16 01:07:51;;;;;;;6.70;1.77;;;6.40;99.90;;;;;;5044072;28;21057;-80
2023/10/16 01:10:48;;;;;;;;;;;6.40;99.90;;;;;;5055378;28;20283;-80
2023/10/16 01:13:34;;;;;;;4.80;1.33;;;6.30;99.90;;;;;;5053513;28;19919;-81
2023/10/16 01:16:20;;;;;;;8.40;1.88;;;6.30;99.90;;;;;;5062112;28;20698;-76
2023/10/16 01:19:10;;;;;;;8.00;1.60;;;6.40;99.90;;;;;;5033389;28;20072;-76
2023/10/16 01:21:59;;;;;;;6.65;1.80;;;6.30;99.90;;;;;;5057581;28;20033;-76
2023/10/16 01:24:45;;;;;;;11.88;1.98;;;6.30;99.90;;;;;;5043994;28;20097;-76
2023/10/16 01:27:31;;;;;;;12.80;2.55;;;6.30;99.90;;;;;;5067615;28;20036;-76
2023/10/16 01:30:19;;;;;;;6.53;1.98;;;6.30;99.90;;;;;;5064932;28;20029;-76
2023/10/16 01:33:07;;;;;;;6.13;1.60;;;6.20;99.90;;;;;;5044121;28;20044;-76
2023/10/16 01:35:53;;;;;;;6.80;2.03;;;6.20;99.90;;;;;;5072413;28;20048;-76
2023/10/16 01:38:39;;;;;;;9.15;2.10;;;6.20;99.90;;;;;;5064542;28;20040;-76
2023/10/16 01:41:27;;;;;;;8.75;2.38;;;6.20;99.90;;;;;;5058577;28;20036;-76
2023/10/16 01:44:18;;;;;;;6.00;1.87;;;6.20;99.90;;;;;;5042420;28;20072;-75
2023/10/16 01:47:08;;;;;;;6.15;2.38;;;6.20;99.90;;;;;;5056273;28;20194;-76
2023/10/16 01:49:54;;;;;;;9.38;2.08;;;6.20;99.90;;;;;;5058886;28;20036;-76
2023/10/16 01:52:40;;;;;;;11.52;2.08;;;6.20;99.90;;;;;;5068533;28;20075;-76
2023/10/16 01:55:27;;;;;;;5.53;1.80;;;6.10;99.90;;;;;;5054590;28;20036;-76
2023/10/16 01:58:15;;;;;;;8.23;2.00;;;6.10;99.90;;;;;;5065758;28;20495;-76
2023/10/16 02:01:02;;;;;;;6.25;1.88;;;6.10;99.90;;;;;;5070225;28;20036;-76
2023/10/16 02:03:49;;;;;;;7.07;2.22;;;6.20;99.90;;;;;;5052538;28;20090;-76
2023/10/16 02:06:35;;;;;;;8.13;2.20;;;6.10;99.90;;;;;;5065696;28;20094;-76
2023/10/16 02:09:23;;;;;;;7.38;2.20;;;6.10;99.90;;;;;;5055540;28;20036;-76
2023/10/16 02:12:16;;;;;;;8.77;1.90;;;6.10;99.90;;;;;;5037269;28;20072;-76
2023/10/16 02:15:05;;;;;;;7.72;2.63;;;6.10;99.90;;;;;;5041801;28;20037;-76
2023/10/16 02:17:53;;;;;;;8.07;2.03;;;6.00;99.90;;;;;;5066067;28;20450;-76
2023/10/16 02:20:39;;;;;;;9.85;2.45;;;6.00;99.90;;;;;;5070057;28;20041;-76
2023/10/16 02:23:29;;;;;;;8.73;2.05;;;6.10;99.90;;;;;;5028524;28;20040;-76
2023/10/16 02:26:18;;;;;;;5.50;1.77;;;6.00;99.90;;;;;;5070220;28;20040;-76
2023/10/16 02:29:05;;;;;;;8.80;2.08;;;6.10;99.90;;;;;;5066714;28;20036;-76
2023/10/16 02:31:51;;;;;;;7.15;1.95;;;6.10;99.90;;;;;;5043328;28;20040;-76
2023/10/16 02:34:37;;;;;;;10.90;2.75;;;6.10;99.90;;;;;;5073940;28;20029;-76
2023/10/16 02:37:23;;;;;;;8.70;2.00;;;6.00;99.90;;;;;;5049380;28;20068;-76
2023/10/16 02:40:10;;;;;;;7.13;1.80;;;6.00;99.90;;;;;;5047643;28;20051;-76
2023/10/16 02:43:00;;;;;;;4.88;1.52;;;6.00;99.90;;;;;;5054690;28;20051;-76
2023/10/16 02:45:47;;;;;;;7.07;1.98;;;6.00;99.90;;;;;;5053484;28;20049;-76
2023/10/16 02:48:35;;;;;;;8.35;2.17;;;6.00;99.90;;;;;;5050498;28;20497;-76
2023/10/16 02:51:21;;;;;;;23.70;3.63;;;6.00;99.90;;;;;;5046636;28;20461;-76
2023/10/16 02:54:07;;;;;;;5.18;2.10;;;5.90;99.90;;;;;;5059954;28;20445;-76
2023/10/16 02:56:59;;;;;;;10.88;3.17;;;5.90;99.90;;;;;;5052198;28;20441;-76
2023/10/16 02:59:45;;;;;;;11.10;2.65;;;5.90;99.90;;;;;;5050399;28;20564;-76
2023/10/16 03:02:31;;;;;;;9.18;2.33;;;5.90;99.90;;;;;;5045526;28;20079;-76
2023/10/16 03:05:24;;;;;;;7.07;2.17;;;5.90;99.90;;;;;;5030957;28;20067;-76
2023/10/16 03:08:12;;;;;;;10.00;2.47;;;6.00;99.90;;;;;;5061438;28;20040;-76
2023/10/16 03:10:59;;;;;;;;;;;6.00;99.90;;;;;;5073526;28;20051;-76
2023/10/16 03:13:50;;;;;;;11.20;2.00;;;6.00;99.90;;;;;;5055145;28;20335;-76
2023/10/16 03:16:36;;;;;;;4.32;2.00;;;6.00;99.90;;;;;;5047616;28;20672;-76
2023/10/16 03:19:23;;;;;;;10.68;2.28;;;6.00;99.90;;;;;;5046384;28;20131;-77
2023/10/16 03:22:11;;;;;;;7.68;1.92;;;6.00;99.90;;;;;;5037846;28;20045;-76
2023/10/16 03:24:59;;;;;;;8.77;1.85;;;6.00;99.90;;;;;;5055568;28;20067;-77
2023/10/16 03:27:45;;;;;;;10.30;2.33;;;5.90;99.90;;;;;;5046290;28;20495;-77
2023/10/16 03:30:31;;;;;;;9.02;2.35;;;6.00;99.90;;;;;;5074814;28;20081;-76
2023/10/16 03:33:18;;;;;;;6.57;2.10;;;6.00;99.90;;;;;;5074375;28;20041;-76
2023/10/16 03:36:04;;;;;;;16.27;2.23;;;6.10;99.90;;;;;;5054074;28;20413;-77
2023/10/16 03:38:52;;;;;;;8.43;1.80;;;6.10;99.90;;;;;;5055246;28;20272;-77
2023/10/16 03:41:39;;;;;;;7.55;2.67;;;6.00;99.90;;;;;;5053865;28;20044;-77
2023/10/16 03:44:26;;;;;;;7.33;1.90;;;6.00;99.90;;;;;;5059816;28;20055;-76
2023/10/16 03:47:14;;;;;;;11.50;2.35;;;6.00;99.90;;;;;;5073639;28;20059;-76
2023/10/16 03:50:00;;;;;;;9.45;2.25;;;6.00;99.90;;;;;;5078171;28;20148;-76
2023/10/16 03:52:46;;;;;;;9.60;1.90;;;6.00;99.90;;;;;;5078353;28;20318;-77
2023/10/16 03:55:39;;;;;;;9.57;2.33;;;6.00;99.90;;;;;;5066989;28;20040;-77
2023/10/16 03:58:26;;;;;;;5.85;1.75;;;6.10;99.90;;;;;;5053767;28;20414;-77
2023/10/16 04:01:13;;;;;;;9.75;2.47;;;6.00;99.90;;;;;;5053674;28;20040;-77
2023/10/16 04:04:03;;;;;;;6.90;2.30;;;6.00;99.90;;;;;;5063455;28;20121;-77
2023/10/16 04:06:49;;;;;;;6.22;2.03;;;6.00;99.90;;;;;;5079452;28;20090;-80
2023/10/16 04:09:40;;;;;;;7.93;2.20;;;6.10;99.90;;;;;;5050195;28;20068;-80
2023/10/16 04:12:26;;;;;;;8.23;2.42;;;6.10;99.90;;;;;;5057413;28;20059;-80
2023/10/16 04:15:23;;;;;;;10.18;2.58;;;6.20;99.90;;;;;;5037366;28;20416;-80
2023/10/16 04:18:19;;;;;;;13.30;2.87;;;6.20;99.90;;;;;;5054556;28;20067;-80
2023/10/16 04:21:37;;;;;;;7.20;2.67;;;6.10;99.90;;;;;;5047861;28;20728;-80
2023/10/16 04:34:02;;;;;;;6.55;2.20;;;6.20;99.90;;;;;;4998658;28;20081;-80
2023/10/16 04:37:18;;;;;;;6.22;2.15;;;6.10;99.90;;;;;;5002046;28;20038;-80
2023/10/16 04:46:23;;;;;;;11.68;3.67;;;6.20;99.90;;;;;;5031949;28;20067;-80
2023/10/16 04:49:14;;;;;;;13.77;2.90;;;6.10;99.90;;;;;;5056262;28;20658;-80
2023/10/16 04:52:07;;;;;;;8.43;2.58;;;6.10;99.90;;;;;;5048775;28;20043;-80
2023/10/16 04:55:02;;;;;;;13.10;4.60;;;6.10;99.90;;;;;;5048473;28;20033;-80
2023/10/16 04:57:53;;;;;;;9.65;3.40;;;6.10;99.90;;;;;;5060308;28;20032;-80
2023/10/16 05:01:17;;;;;;;10.52;2.80;;;6.10;99.90;;;;;;5042673;28;20037;-80
2023/10/16 05:07:17;;;;;;;8.18;2.50;;;6.00;99.90;;;;;;5047301;28;20037;-80
2023/10/16 05:10:18;;;;;;;7.25;2.47;;;6.10;99.90;;;;;;5047594;28;20151;-80
2023/10/16 05:19:17;;;;;;;12.15;3.10;;;6.10;99.90;;;;;;5072434;28;20102;-80
2023/10/16 05:22:03;;;;;;;9.70;2.97;;;6.10;99.90;;;;;;5050984;28;20040;-80
2023/10/16 06:14:12;;;;;;;10.68;3.05;;;6.40;99.90;;;;;;5110230;28;20475;-80
2023/10/16 06:16:58;;;;;;;10.85;3.92;;;6.50;99.90;;;;;;5077518;28;20499;-79
2023/10/16 06:19:44;;;;;;;10.18;3.30;;;6.50;99.90;;;;;;5072952;28;20040;-80
2023/10/16 06:22:30;;;;;;;12.82;3.78;;;6.50;99.90;;;;;;5060336;28;20047;-80
2023/10/16 06:25:19;;;;;;;8.43;3.88;;;6.50;99.90;;;;;;5097471;28;20118;-80
2023/10/16 06:28:11;;;;;;;12.07;3.70;;;6.60;99.90;;;;;;5088213;28;20043;-80
2023/10/16 06:31:00;;;;;;;10.95;3.70;;;6.60;99.90;;;;;;5092145;28;20418;-80
2023/10/16 06:33:47;;;;;;;10.50;3.95;;;6.70;99.90;;;;;;5076393;28;20035;-80
2023/10/16 06:36:33;;;;;;;10.60;4.33;;;6.70;99.90;;;;;;5077014;28;20075;-76
2023/10/16 06:39:22;;;;;;;11.00;4.63;;;6.70;99.90;;;;;;5116478;28;20035;-76
2023/10/16 06:42:14;;;;;;;10.38;4.18;;;6.70;99.90;;;;;;5065690;28;20070;-76
2023/10/16 06:45:07;;;;;;;7.57;3.92;;;6.70;99.90;;;;;;5067918;28;20044;-75
2023/10/16 06:47:58;;;;;;;13.30;4.68;;;6.80;99.90;;;;;;5082803;28;20123;-75
2023/10/16 06:50:54;;;;;;;16.38;4.25;;;6.80;99.90;;;;;;5087892;28;20077;-75
2023/10/16 06:53:40;;;;;;;9.00;3.80;;;6.80;99.90;;;;;;5077364;28;20042;-75
2023/10/16 06:56:32;;;;;;;13.48;4.47;;;6.80;99.90;;;;;;5074427;28;20039;-76
2023/10/16 06:59:18;;;;;;;14.95;4.53;;;6.90;99.90;;;;;;5068145;28;20036;-76
2023/10/16 07:02:04;;;;;;;9.18;3.90;;;6.90;99.90;;;;;;5077975;28;20044;-75
2023/10/16 07:04:50;;;;;;;8.85;3.95;;;6.90;99.90;;;;;;5083043;28;20043;-76
2023/10/16 07:07:36;;;;;;;9.57;3.60;;;6.90;99.90;;;;;;5066705;28;20376;-76
2023/10/16 07:10:25;;;;;;;10.73;4.15;;;7.00;99.90;;;;;;5087146;28;20137;-75
2023/10/16 07:13:11;;;;;;;10.27;3.92;;;7.00;99.90;;;;;;5071801;28;20044;-76
2023/10/16 07:16:04;;;;;;;14.27;3.78;;;7.10;99.90;;;;;;5073858;28;20460;-76
2023/10/16 07:18:54;;;;;;;10.82;3.20;;;7.10;99.90;;;;;;5066987;28;20040;-76
2023/10/16 07:21:41;;;;;;;8.40;3.08;;;7.10;99.90;;;;;;5078182;28;20432;-76
2023/10/16 07:24:27;;;;;;;8.02;3.50;;;7.10;99.90;;;;;;5098537;28;20039;-76
2023/10/16 07:27:14;;;;;;;14.23;3.75;;;7.20;99.90;;;;;;5089016;28;20047;-76
2023/10/16 07:30:18;;;;;;;10.32;3.45;;;7.20;99.90;;;;;;5083958;28;20043;-76
2023/10/16 07:33:04;;;;;;;10.10;4.03;;;7.20;99.90;;;;;;5072241;28;20028;-75
2023/10/16 07:35:52;;;;;;;6.78;3.22;;;7.20;99.90;;;;;;5072277;28;20107;-76
2023/10/16 07:38:38;;;;;;;10.38;4.15;;;7.30;99.90;;;;;;5096246;28;20039;-76
2023/10/16 07:41:24;;;;;;;10.18;3.90;;;7.30;99.90;;;;;;5087119;28;20043;-76
2023/10/16 07:44:12;;;;;;;7.75;3.63;;;7.30;99.90;;;;;;5071075;28;20055;-76
2023/10/16 07:46:58;;;;;;;9.73;3.83;;;7.40;99.90;;;;;;5078263;28;20384;-76
2023/10/16 07:49:46;;;;;;;11.13;4.03;;;7.40;99.90;;;;;;5082371;28;20078;-76
2023/10/16 07:52:33;;;;;;;10.30;3.70;;;7.50;99.90;;;;;;5069559;28;20048;-76
2023/10/16 07:55:21;;;;;;;8.60;3.27;;;7.60;99.90;;;;;;5073382;28;20032;-76
2023/10/16 07:58:16;;;;;;;8.93;4.03;;;7.60;99.90;;;;;;5090609;28;20111;-76
2023/10/16 08:03:51;;;;;;;8.30;3.33;;;7.70;99.90;;;;;;5077364;28;20043;-75
2023/10/16 08:06:39;;;;;;;10.05;3.40;;;7.80;99.90;;;;;;5056422;28;20051;-77
2023/10/16 08:12:18;;;;;;;11.07;4.75;;;7.90;99.90;;;;;;5092881;28;19908;-76
2023/10/16 08:15:14;;;;;;;8.98;3.67;;;8.00;99.90;;;;;;5071563;28;20390;-76
2023/10/16 08:18:00;;;;;;;10.05;3.75;;;7.90;99.90;;;;;;5110883;28;20032;-76
2023/10/16 08:21:00;;;;;;;13.10;4.07;;;7.90;99.90;;;;;;5080709;28;20055;-76
2023/10/16 08:23:46;;;;;;;11.00;3.75;;;8.00;99.90;;;;;;5090268;28;20032;-76
2023/10/16 08:26:42;;;;;;;8.88;3.58;;;8.10;99.90;;;;;;5085599;28;20051;-77
2023/10/16 08:29:34;;;;;;;10.23;4.10;;;8.10;99.90;;;;;;5080760;28;20413;-77
2023/10/16 08:35:25;;;;;;;9.05;3.70;;;8.20;99.90;;;;;;5085092;28;20345;-76
2023/10/16 08:38:20;;;;;;;8.00;4.22;;;8.30;99.90;;;;;;5069989;28;20064;-77
2023/10/16 08:41:07;;;;;;;10.07;4.30;;;8.40;99.90;;;;;;5082241;28;20035;-77
2023/10/16 08:43:57;;;;;;;10.52;3.78;;;8.30;99.90;;;;;;5072053;28;20537;-77
2023/10/16 08:46:52;;;;;;;9.55;3.63;;;8.30;99.90;;;;;;5078075;28;20078;-77
2023/10/16 08:49:39;;;;;;;6.78;3.75;;;8.30;99.90;;;;;;5071346;28;20533;-77
2023/10/16 08:52:34;;;;;;;5.10;3.50;;;8.20;99.90;;;;;;5066483;28;20119;-77
2023/10/16 08:55:26;;;;;;;5.72;3.70;;;8.40;99.90;;;;;;5093517;28;20545;-77
2023/10/16 08:58:12;;;;;;;7.57;3.58;;;8.50;99.90;;;;;;5073698;28;20128;-77
2023/10/16 09:00:58;;;;;;;10.00;4.38;;;8.50;99.90;;;;;;5071573;28;20270;-77
2023/10/16 09:03:54;;;;;;;10.52;4.50;;;8.50;99.90;;;;;;5088513;28;20042;-77
2023/10/16 09:06:40;;;;;;;10.75;4.15;;;8.40;99.90;;;;;;5067529;28;20040;-77
2023/10/16 09:09:31;;;;;;;8.73;4.03;;;8.60;99.90;;;;;;5063362;28;20113;-77
2023/10/16 09:12:26;;;;;;;9.73;4.25;;;8.60;99.90;;;;;;5089737;28;20030;-77
2023/10/16 09:15:15;;;;;;;9.10;4.72;;;8.60;99.90;;;;;;5074175;28;20091;-77
2023/10/16 09:18:00;;;;;;;7.43;3.42;;;8.60;99.90;;;;;;5069690;28;20119;-77
2023/10/16 09:20:49;;;;;;;9.88;3.88;;;8.50;99.90;;;;;;5068942;28;20040;-77
2023/10/16 09:23:36;;;;;;;6.22;3.75;;;8.60;99.90;;;;;;5080597;28;20379;-77
2023/10/16 09:26:23;;;;;;;8.55;3.83;;;8.60;99.90;;;;;;5080562;28;20379;-77
2023/10/16 09:29:14;;;;;;;6.53;4.05;;;8.60;99.90;;;;;;5090723;28;20407;-77
2023/10/16 09:32:02;;;;;;;5.57;3.85;;;8.60;99.90;;;;;;5071357;28;20031;-77
2023/10/16 09:34:53;;;;;;;7.90;3.63;;;8.70;99.90;;;;;;5076330;28;20096;-77
2023/10/16 09:37:40;;;;;;;7.47;3.90;;;8.80;99.90;;;;;;5075525;28;20473;-77
2023/10/16 09:40:38;;;;;;;7.60;3.95;;;8.80;99.90;;;;;;5094435;28;20043;-78
2023/10/16 09:43:26;;;;;;;5.10;3.47;;;8.80;99.90;;;;;;5077347;28;20036;-77
2023/10/16 09:49:33;;;;;;;7.28;3.60;;;8.80;99.90;;;;;;5002829;28;19932;-77
2023/10/16 09:52:20;;;;;;;8.05;3.35;;;8.90;99.90;;;;;;5005265;28;20120;-77
2023/10/16 09:55:07;;;;;;;8.20;3.75;;;8.80;99.90;;;;;;5005901;28;20498;-77
2023/10/16 09:57:56;;;;;;;11.50;3.80;;;8.90;99.90;;;;;;5066303;28;20050;-76
2023/10/16 10:00:46;;;;;;;5.88;4.05;;;8.90;99.90;;;;;;5072078;28;20036;-77
2023/10/16 10:03:35;;;;;;;8.32;4.40;;;8.90;99.90;;;;;;5067032;28;20039;-77
2023/10/16 10:06:21;;;;;;;8.18;3.88;;;8.90;99.90;;;;;;5074910;28;20102;-77
2023/10/16 10:12:13;;;;;;;5.75;3.65;;;9.10;99.90;;;;;;5069913;28;20540;-75
2023/10/16 10:15:12;;;;;;;8.27;3.60;;;9.10;99.90;;;;;;5081951;28;20074;-75
2023/10/16 10:18:31;;;;;;;8.27;3.58;;;9.30;99.90;;;;;;5074591;28;20043;-76
2023/10/16 10:21:11;;;;;;;6.97;3.60;;;9.60;99.90;;;;;;5081230;28;20063;-76
2023/10/16 10:24:00;;;;;;;5.70;3.20;;;9.90;99.90;;;;;;5065746;28;20565;-76
2023/10/16 10:26:55;;;;;;;6.38;3.35;;;10.20;99.90;;;;;;5072655;28;20142;-77
2023/10/16 10:29:44;;;;;;;7.60;3.28;;;10.10;99.90;;;;;;5102025;28;20035;-75
2023/10/16 10:32:32;;;;;;;7.35;3.90;;;10.20;99.90;;;;;;5070880;28;20071;-75
2023/10/16 10:35:28;;;;;;;6.05;2.80;;;10.30;99.90;;;;;;5091513;28;20046;-75
2023/10/16 10:38:29;;;;;;;7.30;3.10;;;10.40;99.90;;;;;;5080662;28;20131;-75
2023/10/16 10:41:18;;;;;;;7.93;3.47;;;10.40;99.90;;;;;;5091753;28;20067;-74
2023/10/16 10:44:08;;;;;;;7.73;3.93;;;10.50;99.90;;;;;;5075593;28;20036;-80
2023/10/16 10:46:54;;;;;;;8.45;4.63;;;10.30;99.90;;;;;;5082555;28;20094;-80
2023/10/16 10:49:41;;;;;;;5.72;4.05;;;10.10;99.90;;;;;;5067218;28;20342;-80
2023/10/16 10:52:32;;;;;;;9.98;4.57;;;10.00;99.90;;;;;;5064237;28;20368;-80
2023/10/16 10:55:18;;;;;;;7.05;4.25;;;10.00;99.90;;;;;;5082288;28;20047;-80
2023/10/16 10:58:11;;;;;;;8.43;4.65;;;10.20;99.90;;;;;;5085565;28;20145;-80
2023/10/16 11:04:15;;;;;;;8.98;4.07;;;10.30;99.90;;;;;;5092426;28;20054;-80
2023/10/16 11:07:11;;;;;;;7.50;3.85;;;10.30;99.90;;;;;;5088651;28;20044;-80
2023/10/16 11:09:57;;;;;;;7.50;4.45;;;10.30;99.90;;;;;;5066025;28;20778;-80
2023/10/16 11:12:44;;;;;;;5.47;4.50;;;10.20;99.90;;;;;;5080474;28;20053;-80
2023/10/16 11:15:30;;;;;;;11.25;5.20;;;10.30;99.90;;;;;;5092653;28;20120;-80
2023/10/16 11:18:19;;;;;;;7.95;4.57;;;10.30;99.90;;;;;;5101281;28;20079;-76
2023/10/16 11:21:05;;;;;;;9.55;4.50;;;10.40;99.90;;;;;;5087258;28;20043;-76
2023/10/16 11:23:55;;;;;;;5.20;3.53;;;10.40;99.90;;;;;;5086592;28;20031;-76
2023/10/16 11:26:46;;;;;;;7.03;3.95;;;10.40;99.90;;;;;;5076564;28;20127;-76
2023/10/16 11:29:33;;;;;;;9.23;4.03;;;10.40;99.90;;;;;;5091791;28;20046;-80
2023/10/16 11:32:25;;;;;;;6.10;3.90;;;10.50;99.90;;;;;;5104708;28;20036;-80
2023/10/16 11:35:15;;;;;;;6.72;3.38;;;10.50;99.90;;;;;;5079459;28;20043;-80
2023/10/16 11:38:19;;;;;;;5.22;3.17;;;10.50;99.90;;;;;;5099457;28;20036;-80
2023/10/16 11:41:11;;;;;;;9.23;3.33;;;10.40;99.90;;;;;;5089302;28;20048;-80
2023/10/16 11:44:01;;;;;;;9.75;3.80;;;10.40;99.90;;;;;;5103747;28;20040;-80
2023/10/16 11:46:53;;;;;;;5.38;3.13;;;10.40;99.90;;;;;;5097823;28;20063;-80
2023/10/16 11:49:39;;;;;;;8.90;3.75;;;10.40;99.90;;;;;;5090300;28;20099;-80
2023/10/16 11:52:27;;;;;;;5.18;3.58;;;10.30;99.90;;;;;;5078853;28;20104;-80
2023/10/16 11:55:13;;;;;;;6.72;3.50;;;10.30;99.90;;;;;;5087690;28;20027;-80
2023/10/16 11:57:59;;;;;;;8.48;3.70;;;10.30;99.90;;;;;;5096962;28;20721;-80
2023/10/16 12:00:53;;;;;;;8.63;3.55;;;10.30;99.90;;;;;;5086816;28;20050;-80
2023/10/16 12:03:39;;;;;;;9.68;3.28;;;10.30;99.90;;;;;;5060200;28;20040;-80
2023/10/16 12:06:25;;;;;;;12.25;3.78;;;10.30;99.90;;;;;;5069921;28;20060;-80
2023/10/16 12:09:19;;;;;;;9.82;4.40;;;10.30;99.90;;;;;;5078667;28;20544;-80
2023/10/16 12:12:06;;;;;;;8.65;3.45;;;10.30;99.90;;;;;;5112163;28;20035;-80
2023/10/16 12:14:53;;;;;;;6.07;2.60;;;10.30;99.90;;;;;;5101253;28;20127;-80
2023/10/16 12:17:39;;;;;;;6.00;3.10;;;10.30;99.90;;;;;;5074071;28;20044;-77
2023/10/16 12:20:27;;;;;;;7.22;3.20;;;10.30;99.90;;;;;;5069353;28;20075;-77
2023/10/16 12:23:20;;;;;;;6.93;3.60;;;10.30;99.90;;;;;;5067754;28;20519;-77
2023/10/16 12:26:07;;;;;;;5.70;3.10;;;10.20;99.90;;;;;;5092661;28;20135;-76
2023/10/16 12:28:53;;;;;;;5.80;2.95;;;10.10;99.90;;;;;;5064854;28;20376;-77
2023/10/16 12:31:42;;;;;;;7.95;2.70;;;10.00;99.90;;;;;;5079737;28;20035;-77
2023/10/16 12:34:32;;;;;;;7.10;2.95;;;10.10;99.90;;;;;;5073763;28;20036;-77
2023/10/16 12:37:22;;;;;;;7.45;2.78;;;10.10;99.90;;;;;;5081917;28;20051;-76
2023/10/16 12:40:33;;;;;;;6.25;2.80;;;10.20;99.90;;;;;;5085805;28;20047;-76
2023/10/16 12:43:20;;;;;;;8.50;2.83;;;10.80;99.90;;;;;;5079417;28;20039;-82
2023/10/16 12:46:07;;;;;;;4.85;2.63;;;11.70;99.90;;;;;;5083459;28;20094;-81
2023/10/16 12:48:54;;;;;;;4.97;2.28;;;12.40;99.90;;;;;;5075653;28;20063;-81
2023/10/16 12:51:42;;;;;;;4.85;2.38;;;13.30;99.90;;;;;;5076132;28;20083;-82
2023/10/16 12:54:28;;;;;;;;;;;13.60;99.90;;;;;;5067654;28;20035;-82
2023/10/16 12:57:15;;;;;;;3.95;2.42;;;13.70;99.90;;;;;;5085227;28;19911;-80
2023/10/16 13:00:13;;;;;;;5.15;2.30;;;13.50;99.90;;;;;;5065304;28;20061;-80
2023/10/16 13:02:59;;;;;;;5.38;3.00;;;13.30;99.90;;;;;;5068909;28;20419;-79
2023/10/16 13:05:45;;;;;;;4.75;2.80;;;13.00;99.90;;;;;;5069550;28;20047;-79
2023/10/16 13:08:35;;;;;;;4.90;3.58;;;12.80;99.90;;;;;;5079268;28;20714;-79
2023/10/16 13:11:21;;;;;;;5.43;3.30;;;12.30;99.90;;;;;;5083221;28;20346;-79
2023/10/16 13:14:07;;;;;;;5.25;3.38;;;12.00;99.90;;;;;;5066087;28;20119;-79
2023/10/16 13:16:53;;;;;;;5.15;3.35;;;11.70;99.90;;;;;;5093202;28;20476;-79
2023/10/16 13:19:39;;;;;;;5.80;2.85;;;11.50;99.90;;;;;;5093512;28;20387;-78
2023/10/16 13:22:25;;;;;;;6.70;3.40;;;11.60;99.90;;;;;;5084184;28;20058;-78
2023/10/16 13:25:12;;;;;;;5.07;3.40;;;11.60;99.90;;;;;;5069658;28;20050;-79
2023/10/16 13:27:59;;;;;;;6.15;3.30;;;11.50;99.90;;;;;;5068727;28;20040;-75
2023/10/16 13:30:46;;;;;;;5.97;3.30;;;11.30;99.90;;;;;;5079795;28;20035;-75
2023/10/16 13:33:32;;;;;;;7.07;3.35;;;11.20;99.90;;;;;;5067673;28;20073;-78
2023/10/16 13:36:18;;;;;;;8.23;3.65;;;11.20;99.90;;;;;;5083305;28;20095;-78
2023/10/16 13:39:19;;;;;;;6.70;3.85;;;11.20;99.90;;;;;;5090251;28;20039;-74
2023/10/16 13:42:08;;;;;;;11.60;6.05;;;11.10;99.90;;;;;;5079670;28;20476;-74
2023/10/16 13:44:54;;;;;;;7.55;3.20;;;11.20;99.90;;;;;;5060937;28;20476;-75
2023/10/16 13:47:42;;;;;;;6.15;2.60;;;11.10;99.90;;;;;;5079360;28;20048;-75
2023/10/16 13:50:29;;;;;;;;;;;11.20;99.90;;;;;;5065543;28;20044;-79
2023/10/16 13:53:19;;;;;;;7.30;3.85;;;11.20;99.90;;;;;;5079299;28;19945;-79
2023/10/16 13:56:07;;;;;;;9.13;4.82;;;11.20;99.90;;;;;;5066509;28;20147;-79
2023/10/16 13:58:54;;;;;;;3.08;1.90;;;11.10;99.90;;;;;;5079200;28;20496;-79
2023/10/16 14:01:45;;;;;;;3.22;1.95;;;11.10;99.90;;;;;;5078162;28;20739;-79
2023/10/16 14:04:33;;;;;;;3.35;1.30;;;11.20;99.90;;;;;;5072325;28;20036;-79
2023/10/16 14:07:21;;;;;;;3.35;1.10;;;11.20;99.90;;;;;;5058185;28;20047;-79
2023/10/16 14:10:08;;;;;;;3.47;1.23;;;11.10;99.90;;;;;;5065032;28;20452;-73
2023/10/16 14:13:00;;;;;;;2.97;1.20;;;11.10;99.90;;;;;;5054642;28;20143;-74
2023/10/16 14:15:50;;;;;;;3.28;1.50;;;11.40;99.90;;;;;;5091154;28;20093;-74
2023/10/16 14:18:44;;;;;;;3.90;1.77;;;11.50;99.90;;;;;;5088148;28;20105;-76
2023/10/16 14:21:30;;;;;;;4.43;1.63;;;11.50;99.90;;;;;;5056758;28;20093;-75
2023/10/16 14:24:17;;;;;;;4.45;1.90;;;11.50;99.90;;;;;;5060584;28;20043;-76
2023/10/16 14:27:04;;;;;;;4.35;1.80;;;11.60;99.90;;;;;;5068417;28;20380;-76
2023/10/16 14:29:58;;;;;;;6.30;1.90;;;11.60;99.90;;;;;;5066468;28;20037;-76
2023/10/16 14:32:46;;;;;;;4.97;1.60;;;11.60;99.90;;;;;;5076879;28;20327;-76
2023/10/16 14:35:37;;;;;;;6.03;1.63;;;11.60;99.90;;;;;;5080084;28;20047;-75
2023/10/16 14:38:24;;;;;;;4.07;1.40;;;11.60;99.90;;;;;;5074299;28;20045;-76
2023/10/16 14:41:23;;;;;;;4.63;1.50;;;11.60;99.90;;;;;;5064327;28;20090;-76
2023/10/16 14:44:09;;;;;;;5.28;1.35;;;11.60;99.90;;;;;;5063994;28;20526;-76
2023/10/16 14:46:56;;;;;;;4.00;1.30;;;11.50;99.90;;;;;;5104266;28;20054;-79
2023/10/16 14:49:42;;;;;;;3.30;1.27;;;11.40;99.90;;;;;;5080068;28;20136;-79
2023/10/16 14:52:28;;;;;;;5.43;1.63;;;11.40;99.90;;;;;;5090497;28;20048;-79
2023/10/16 14:55:17;;;;;;;2.80;1.33;;;11.30;99.90;;;;;;5101679;28;20035;-79
2023/10/16 14:58:03;;;;;;;5.88;1.60;;;11.30;99.90;;;;;;5103772;28;20059;-79
2023/10/16 15:00:50;;;;;;;3.17;1.20;;;11.20;99.90;;;;;;5100564;28;20036;-80
2023/10/16 15:03:40;;;;;;;3.97;1.33;;;11.20;99.90;;;;;;5065317;28;20498;-80
2023/10/16 15:06:26;;;;;;;4.45;2.22;;;11.10;99.90;;;;;;5079918;28;20117;-79
2023/10/16 15:09:18;;;;;;;5.50;2.05;;;11.10;99.90;;;;;;5081162;28;20020;-79
2023/10/16 15:12:07;;;;;;;3.83;2.10;;;11.00;99.90;;;;;;5074865;28;20059;-79
2023/10/16 15:14:53;;;;;;;10.40;3.28;;;11.00;99.90;;;;;;5098858;28;20047;-79
2023/10/16 15:17:39;;;;;;;8.48;3.47;;;10.90;99.90;;;;;;5086844;28;20032;-79
2023/10/16 15:20:26;;;;;;;10.05;3.55;;;10.90;99.90;;;;;;5074718;28;20050;-79
2023/10/16 15:23:13;;;;;;;6.17;2.33;;;10.80;99.90;;;;;;5102010;28;20036;-79
2023/10/16 15:26:02;;;;;;;5.97;1.77;;;10.80;99.90;;;;;;5075178;28;20106;-79
2023/10/16 15:28:48;;;;;;;4.68;1.50;;;10.70;99.90;;;;;;5082655;28;20047;-79
2023/10/16 15:31:35;;;;;;;4.18;1.60;;;10.70;99.90;;;;;;5076809;28;20039;-79
2023/10/16 15:34:21;;;;;;;3.92;1.63;;;10.70;99.90;;;;;;5087671;28;20166;-79
2023/10/16 15:37:10;;;;;;;4.68;2.00;;;10.70;99.90;;;;;;5075740;28;20089;-79
2023/10/16 15:39:56;;;;;;;5.55;1.70;;;10.60;99.90;;;;;;5077205;28;20376;-79
2023/10/16 15:42:42;;;;;;;5.60;1.70;;;10.60;99.90;;;;;;5086735;28;20043;-79
2023/10/16 15:45:38;;;;;;;3.75;1.88;;;10.60;99.90;;;;;;5073239;28;20368;-79
2023/10/16 15:48:24;;;;;;;4.40;1.50;;;10.60;99.90;;;;;;5056669;28;20111;-79
2023/10/16 15:51:10;;;;;;;9.93;1.80;;;10.60;99.90;;;;;;5067232;28;20481;-79
2023/10/16 15:53:56;;;;;;;5.43;1.70;;;10.50;99.90;;;;;;5066380;28;20048;-80
2023/10/16 15:56:43;;;;;;;7.85;1.75;;;10.50;99.90;;;;;;5066323;28;20032;-79
2023/10/16 15:59:31;;;;;;;7.25;1.80;;;10.40;99.90;;;;;;5058803;28;20121;-80
2023/10/16 16:02:18;;;;;;;;;;;10.40;99.90;;;;;;5082316;28;20041;-79
2023/10/16 16:05:04;;;;;;;4.60;1.40;;;10.40;99.90;;;;;;5054752;28;19912;-79
2023/10/16 16:07:53;;;;;;;5.22;1.88;;;10.30;99.90;;;;;;5047473;28;20079;-80
2023/10/16 16:10:41;;;;;;;8.07;1.95;;;10.30;99.90;;;;;;5069294;28;20435;-79
2023/10/16 16:13:32;;;;;;;4.72;1.95;;;10.20;99.90;;;;;;5043712;28;20037;-79
2023/10/16 16:16:22;;;;;;;4.97;2.17;;;10.20;99.90;;;;;;5062345;28;20051;-79
2023/10/16 16:19:09;;;;;;;7.40;2.10;;;10.20;99.90;;;;;;5049712;28;20040;-79